sensor_id;sensor_type;location;lat;lon;timestamp;temperature;humidity
34989;DHT22;21192;40.182;44.516;2023-02-24T00:01:56;7.10;96.00
34989;DHT22;21192;40.182;44.516;2023-02-24T00:04:34;7.10;96.00
34989;DHT22;21192;40.182;44.516;2023-02-24T00:07:01;7.10;95.90
34989;DHT22;21192;40.182;44.516;2023-02-24T00:09:29;7.00;96.10
34989;DHT22;21192;40.182;44.516;2023-02-24T00:12:01;7.00;96.20
34989;DHT22;21192;40.182;44.516;2023-02-24T00:14:30;6.80;95.20
34989;DHT22;21192;40.182;44.516;2023-02-24T00:16:56;6.50;94.60
34989;DHT22;21192;40.182;44.516;2023-02-24T00:19:24;6.50;93.60
34989;DHT22;21192;40.182;44.516;2023-02-24T00:21:51;6.60;92.50
34989;DHT22;21192;40.182;44.516;2023-02-24T00:24:19;6.70;91.80
34989;DHT22;21192;40.182;44.516;2023-02-24T00:26:49;6.70;91.30
34989;DHT22;21192;40.182;44.516;2023-02-24T00:29:19;6.60;91.10
34989;DHT22;21192;40.182;44.516;2023-02-24T00:31:45;6.70;91.10
34989;DHT22;21192;40.182;44.516;2023-02-24T00:34:11;6.80;90.50
34989;DHT22;21192;40.182;44.516;2023-02-24T00:36:38;6.80;90.20
34989;DHT22;21192;40.182;44.516;2023-02-24T00:39:08;6.80;88.20
34989;DHT22;21192;40.182;44.516;2023-02-24T00:41:39;6.70;81.60
34989;DHT22;21192;40.182;44.516;2023-02-24T00:44:07;6.70;77.40
34989;DHT22;21192;40.182;44.516;2023-02-24T00:46:44;6.80;75.20
34989;DHT22;21192;40.182;44.516;2023-02-24T00:49:17;6.90;73.10
34989;DHT22;21192;40.182;44.516;2023-02-24T00:51:47;7.00;72.10
34989;DHT22;21192;40.182;44.516;2023-02-24T00:54:14;6.90;70.50
34989;DHT22;21192;40.182;44.516;2023-02-24T00:56:45;6.80;70.60
34989;DHT22;21192;40.182;44.516;2023-02-24T00:59:13;6.80;70.80
34989;DHT22;21192;40.182;44.516;2023-02-24T01:01:40;6.70;70.30
34989;DHT22;21192;40.182;44.516;2023-02-24T01:04:07;6.70;70.00
34989;DHT22;21192;40.182;44.516;2023-02-24T01:06:43;6.60;68.90
34989;DHT22;21192;40.182;44.516;2023-02-24T01:09:14;6.60;69.90
34989;DHT22;21192;40.182;44.516;2023-02-24T01:11:42;6.60;72.90
34989;DHT22;21192;40.182;44.516;2023-02-24T01:14:30;6.50;76.00
34989;DHT22;21192;40.182;44.516;2023-02-24T01:16:57;6.30;82.50
34989;DHT22;21192;40.182;44.516;2023-02-24T01:19:27;6.20;86.70
34989;DHT22;21192;40.182;44.516;2023-02-24T01:22:06;6.10;89.80
34989;DHT22;21192;40.182;44.516;2023-02-24T01:24:36;6.00;90.40
34989;DHT22;21192;40.182;44.516;2023-02-24T01:27:03;5.90;90.40
34989;DHT22;21192;40.182;44.516;2023-02-24T01:29:29;5.90;91.00
34989;DHT22;21192;40.182;44.516;2023-02-24T01:31:55;5.90;91.00
34989;DHT22;21192;40.182;44.516;2023-02-24T01:34:26;5.90;90.70
34989;DHT22;21192;40.182;44.516;2023-02-24T01:36:52;5.90;90.60
34989;DHT22;21192;40.182;44.516;2023-02-24T01:39:18;5.90;90.30
34989;DHT22;21192;40.182;44.516;2023-02-24T01:41:46;5.90;90.10
34989;DHT22;21192;40.182;44.516;2023-02-24T01:46:41;5.80;88.10
34989;DHT22;21192;40.182;44.516;2023-02-24T01:51:52;5.60;86.50
34989;DHT22;21192;40.182;44.516;2023-02-24T01:54:24;5.60;83.90
34989;DHT22;21192;40.182;44.516;2023-02-24T01:56:51;5.60;82.30
34989;DHT22;21192;40.182;44.516;2023-02-24T01:59:23;5.60;82.00
34989;DHT22;21192;40.182;44.516;2023-02-24T02:01:51;5.60;81.90
34989;DHT22;21192;40.182;44.516;2023-02-24T02:04:28;5.60;81.80
34989;DHT22;21192;40.182;44.516;2023-02-24T02:06:56;5.60;81.80
34989;DHT22;21192;40.182;44.516;2023-02-24T02:09:22;5.50;82.60
34989;DHT22;21192;40.182;44.516;2023-02-24T02:11:50;5.50;83.10
34989;DHT22;21192;40.182;44.516;2023-02-24T02:14:18;5.40;83.10
34989;DHT22;21192;40.182;44.516;2023-02-24T02:17:19;5.40;83.60
34989;DHT22;21192;40.182;44.516;2023-02-24T02:25:58;5.40;83.10
34989;DHT22;21192;40.182;44.516;2023-02-24T02:42:32;5.80;77.80
34989;DHT22;21192;40.182;44.516;2023-02-24T02:47:41;5.90;76.10
34989;DHT22;21192;40.182;44.516;2023-02-24T02:52:50;5.80;74.10
34989;DHT22;21192;40.182;44.516;2023-02-24T02:55:24;5.80;73.90
34989;DHT22;21192;40.182;44.516;2023-02-24T02:57:53;5.80;72.50
34989;DHT22;21192;40.182;44.516;2023-02-24T03:00:26;5.70;71.60
34989;DHT22;21192;40.182;44.516;2023-02-24T03:03:00;5.70;71.40
34989;DHT22;21192;40.182;44.516;2023-02-24T03:05:37;5.70;71.30
34989;DHT22;21192;40.182;44.516;2023-02-24T03:08:15;5.70;70.20
34989;DHT22;21192;40.182;44.516;2023-02-24T03:10:43;5.70;69.70
34989;DHT22;21192;40.182;44.516;2023-02-24T03:13:11;5.70;69.90
34989;DHT22;21192;40.182;44.516;2023-02-24T03:15:39;5.80;69.90
34989;DHT22;21192;40.182;44.516;2023-02-24T03:18:14;5.80;69.90
34989;DHT22;21192;40.182;44.516;2023-02-24T03:20:49;5.90;69.50
34989;DHT22;21192;40.182;44.516;2023-02-24T03:23:20;6.00;68.80
34989;DHT22;21192;40.182;44.516;2023-02-24T03:25:55;6.10;69.40
34989;DHT22;21192;40.182;44.516;2023-02-24T03:28:36;6.30;70.20
34989;DHT22;21192;40.182;44.516;2023-02-24T03:31:16;6.40;69.50
34989;DHT22;21192;40.182;44.516;2023-02-24T03:34:01;6.40;68.80
34989;DHT22;21192;40.182;44.516;2023-02-24T03:36:30;6.40;68.00
34989;DHT22;21192;40.182;44.516;2023-02-24T03:38:57;6.60;67.80
34989;DHT22;21192;40.182;44.516;2023-02-24T03:41:30;6.80;67.20
34989;DHT22;21192;40.182;44.516;2023-02-24T03:43:59;6.90;66.20
34989;DHT22;21192;40.182;44.516;2023-02-24T03:46:26;6.90;64.00
34989;DHT22;21192;40.182;44.516;2023-02-24T03:49:01;6.90;59.60
34989;DHT22;21192;40.182;44.516;2023-02-24T03:51:29;6.80;57.90
34989;DHT22;21192;40.182;44.516;2023-02-24T03:54:15;6.80;56.20
34989;DHT22;21192;40.182;44.516;2023-02-24T04:02:19;6.70;53.70
34989;DHT22;21192;40.182;44.516;2023-02-24T04:04:48;6.80;53.70
34989;DHT22;21192;40.182;44.516;2023-02-24T04:10:07;7.10;54.10
34989;DHT22;21192;40.182;44.516;2023-02-24T04:12:42;7.10;54.70
34989;DHT22;21192;40.182;44.516;2023-02-24T04:15:34;7.30;54.30
34989;DHT22;21192;40.182;44.516;2023-02-24T04:20:40;10.80;52.00
34989;DHT22;21192;40.182;44.516;2023-02-24T04:23:12;12.90;49.60
34989;DHT22;21192;40.182;44.516;2023-02-24T04:25:43;14.90;46.70
34989;DHT22;21192;40.182;44.516;2023-02-24T04:28:09;16.40;43.70
34989;DHT22;21192;40.182;44.516;2023-02-24T04:30:40;15.50;41.40
34989;DHT22;21192;40.182;44.516;2023-02-24T04:33:06;17.00;40.10
34989;DHT22;21192;40.182;44.516;2023-02-24T04:35:32;17.90;38.30
34989;DHT22;21192;40.182;44.516;2023-02-24T04:37:59;19.30;35.60
34989;DHT22;21192;40.182;44.516;2023-02-24T04:40:25;20.60;33.50
34989;DHT22;21192;40.182;44.516;2023-02-24T04:42:52;20.70;31.40
34989;DHT22;21192;40.182;44.516;2023-02-24T04:45:24;19.60;30.50
34989;DHT22;21192;40.182;44.516;2023-02-24T04:47:53;20.70;29.90
34989;DHT22;21192;40.182;44.516;2023-02-24T04:50:40;21.80;28.50
34989;DHT22;21192;40.182;44.516;2023-02-24T04:53:08;22.80;27.70
34989;DHT22;21192;40.182;44.516;2023-02-24T04:55:40;23.20;27.10
34989;DHT22;21192;40.182;44.516;2023-02-24T04:58:11;24.30;26.20
34989;DHT22;21192;40.182;44.516;2023-02-24T05:00:38;25.40;25.40
34989;DHT22;21192;40.182;44.516;2023-02-24T05:03:07;25.80;24.50
34989;DHT22;21192;40.182;44.516;2023-02-24T05:05:35;26.40;23.90
34989;DHT22;21192;40.182;44.516;2023-02-24T05:08:06;27.30;23.50
34989;DHT22;21192;40.182;44.516;2023-02-24T05:10:38;28.10;23.00
34989;DHT22;21192;40.182;44.516;2023-02-24T05:13:06;28.70;22.50
34989;DHT22;21192;40.182;44.516;2023-02-24T05:15:36;29.20;22.00
34989;DHT22;21192;40.182;44.516;2023-02-24T05:18:04;29.30;21.70
34989;DHT22;21192;40.182;44.516;2023-02-24T05:20:38;29.40;21.60
34989;DHT22;21192;40.182;44.516;2023-02-24T05:23:30;29.60;21.40
34989;DHT22;21192;40.182;44.516;2023-02-24T05:25:58;30.10;21.30
34989;DHT22;21192;40.182;44.516;2023-02-24T05:28:25;30.10;21.00
34989;DHT22;21192;40.182;44.516;2023-02-24T05:30:52;30.10;20.80
34989;DHT22;21192;40.182;44.516;2023-02-24T05:33:20;30.10;20.40
34989;DHT22;21192;40.182;44.516;2023-02-24T05:35:47;30.30;20.20
34989;DHT22;21192;40.182;44.516;2023-02-24T05:38:16;30.40;20.10
34989;DHT22;21192;40.182;44.516;2023-02-24T05:40:47;30.80;19.90
34989;DHT22;21192;40.182;44.516;2023-02-24T05:43:14;31.50;19.70
34989;DHT22;21192;40.182;44.516;2023-02-24T05:45:46;31.80;19.60
34989;DHT22;21192;40.182;44.516;2023-02-24T05:48:12;32.60;19.60
34989;DHT22;21192;40.182;44.516;2023-02-24T05:50:49;32.70;19.20
34989;DHT22;21192;40.182;44.516;2023-02-24T05:53:16;32.60;19.00
34989;DHT22;21192;40.182;44.516;2023-02-24T05:55:43;32.60;18.90
34989;DHT22;21192;40.182;44.516;2023-02-24T05:58:09;32.60;18.80
34989;DHT22;21192;40.182;44.516;2023-02-24T06:00:35;32.30;18.80
34989;DHT22;21192;40.182;44.516;2023-02-24T06:03:05;31.60;18.70
34989;DHT22;21192;40.182;44.516;2023-02-24T06:05:42;31.20;18.90
34989;DHT22;21192;40.182;44.516;2023-02-24T06:08:08;31.20;18.70
34989;DHT22;21192;40.182;44.516;2023-02-24T06:10:37;31.70;18.60
34989;DHT22;21192;40.182;44.516;2023-02-24T06:13:05;32.00;18.50
34989;DHT22;21192;40.182;44.516;2023-02-24T06:15:31;32.30;18.30
34989;DHT22;21192;40.182;44.516;2023-02-24T06:17:59;32.90;18.20
34989;DHT22;21192;40.182;44.516;2023-02-24T06:20:27;33.40;18.10
34989;DHT22;21192;40.182;44.516;2023-02-24T06:22:54;33.50;17.80
34989;DHT22;21192;40.182;44.516;2023-02-24T06:25:24;33.60;17.50
34989;DHT22;21192;40.182;44.516;2023-02-24T06:27:53;33.30;17.20
34989;DHT22;21192;40.182;44.516;2023-02-24T06:30:21;33.20;17.00
34989;DHT22;21192;40.182;44.516;2023-02-24T06:32:48;32.80;17.00
34989;DHT22;21192;40.182;44.516;2023-02-24T06:35:16;32.10;17.10
34989;DHT22;21192;40.182;44.516;2023-02-24T06:37:42;31.00;17.20
34989;DHT22;21192;40.182;44.516;2023-02-24T06:40:10;29.70;17.40
34989;DHT22;21192;40.182;44.516;2023-02-24T06:42:44;27.90;17.70
34989;DHT22;21192;40.182;44.516;2023-02-24T06:45:10;26.10;18.40
34989;DHT22;21192;40.182;44.516;2023-02-24T06:47:36;24.80;19.00
34989;DHT22;21192;40.182;44.516;2023-02-24T06:50:03;23.70;19.50
34989;DHT22;21192;40.182;44.516;2023-02-24T06:52:32;22.70;20.10
34989;DHT22;21192;40.182;44.516;2023-02-24T06:54:58;21.80;20.50
34989;DHT22;21192;40.182;44.516;2023-02-24T06:57:24;20.80;21.30
34989;DHT22;21192;40.182;44.516;2023-02-24T06:59:50;20.10;22.10
34989;DHT22;21192;40.182;44.516;2023-02-24T07:02:16;19.50;22.80
34989;DHT22;21192;40.182;44.516;2023-02-24T07:04:42;18.70;23.10
34989;DHT22;21192;40.182;44.516;2023-02-24T07:07:08;18.20;23.40
34989;DHT22;21192;40.182;44.516;2023-02-24T07:09:35;17.50;24.20
34989;DHT22;21192;40.182;44.516;2023-02-24T07:12:01;16.80;25.10
34989;DHT22;21192;40.182;44.516;2023-02-24T07:14:29;16.30;25.60
34989;DHT22;21192;40.182;44.516;2023-02-24T07:16:56;16.00;25.80
34989;DHT22;21192;40.182;44.516;2023-02-24T07:19:30;15.70;25.90
34989;DHT22;21192;40.182;44.516;2023-02-24T07:21:58;15.30;26.30
34989;DHT22;21192;40.182;44.516;2023-02-24T07:24:27;14.90;27.00
34989;DHT22;21192;40.182;44.516;2023-02-24T07:27:21;14.60;27.90
34989;DHT22;21192;40.182;44.516;2023-02-24T07:29:49;14.40;28.20
34989;DHT22;21192;40.182;44.516;2023-02-24T07:32:15;14.00;28.40
34989;DHT22;21192;40.182;44.516;2023-02-24T07:34:43;13.90;28.50
34989;DHT22;21192;40.182;44.516;2023-02-24T07:37:09;13.80;28.50
34989;DHT22;21192;40.182;44.516;2023-02-24T07:39:37;13.60;28.60
34989;DHT22;21192;40.182;44.516;2023-02-24T07:42:07;13.50;28.40
34989;DHT22;21192;40.182;44.516;2023-02-24T07:44:33;13.50;28.30
34989;DHT22;21192;40.182;44.516;2023-02-24T07:46:59;13.30;28.20
34989;DHT22;21192;40.182;44.516;2023-02-24T07:49:25;13.20;28.20
34989;DHT22;21192;40.182;44.516;2023-02-24T07:51:54;12.90;28.40
34989;DHT22;21192;40.182;44.516;2023-02-24T07:54:24;12.70;28.60
34989;DHT22;21192;40.182;44.516;2023-02-24T07:56:51;12.40;29.20
34989;DHT22;21192;40.182;44.516;2023-02-24T07:59:26;12.10;30.10
34989;DHT22;21192;40.182;44.516;2023-02-24T08:01:53;11.90;30.70
34989;DHT22;21192;40.182;44.516;2023-02-24T08:04:25;11.60;30.30
34989;DHT22;21192;40.182;44.516;2023-02-24T08:06:52;11.20;30.80
34989;DHT22;21192;40.182;44.516;2023-02-24T08:09:26;11.00;31.20
34989;DHT22;21192;40.182;44.516;2023-02-24T08:12:17;11.00;31.00
34989;DHT22;21192;40.182;44.516;2023-02-24T08:14:47;10.80;30.70
34989;DHT22;21192;40.182;44.516;2023-02-24T08:17:18;10.80;30.20
34989;DHT22;21192;40.182;44.516;2023-02-24T08:19:46;10.70;31.40
34989;DHT22;21192;40.182;44.516;2023-02-24T08:22:13;10.60;31.60
34989;DHT22;21192;40.182;44.516;2023-02-24T08:24:50;10.60;31.70
34989;DHT22;21192;40.182;44.516;2023-02-24T08:27:18;10.60;31.50
34989;DHT22;21192;40.182;44.516;2023-02-24T08:29:47;10.70;31.50
34989;DHT22;21192;40.182;44.516;2023-02-24T08:32:40;10.70;30.70
34989;DHT22;21192;40.182;44.516;2023-02-24T08:35:13;10.40;30.60
34989;DHT22;21192;40.182;44.516;2023-02-24T08:37:51;10.30;31.00
34989;DHT22;21192;40.182;44.516;2023-02-24T08:40:19;10.20;31.10
34989;DHT22;21192;40.182;44.516;2023-02-24T08:45:51;10.00;31.10
34989;DHT22;21192;40.182;44.516;2023-02-24T08:48:32;9.90;31.20
34989;DHT22;21192;40.182;44.516;2023-02-24T08:51:13;10.10;31.20
34989;DHT22;21192;40.182;44.516;2023-02-24T08:53:40;10.10;31.10
34989;DHT22;21192;40.182;44.516;2023-02-24T08:56:11;10.00;31.50
34989;DHT22;21192;40.182;44.516;2023-02-24T08:58:43;10.10;31.60
34989;DHT22;21192;40.182;44.516;2023-02-24T09:01:18;10.30;31.50
34989;DHT22;21192;40.182;44.516;2023-02-24T09:03:50;10.30;31.40
34989;DHT22;21192;40.182;44.516;2023-02-24T09:06:18;10.40;31.50
34989;DHT22;21192;40.182;44.516;2023-02-24T09:08:54;10.40;31.70
34989;DHT22;21192;40.182;44.516;2023-02-24T09:11:40;10.60;31.50
34989;DHT22;21192;40.182;44.516;2023-02-24T09:14:11;10.60;30.90
34989;DHT22;21192;40.182;44.516;2023-02-24T09:16:45;10.40;30.50
34989;DHT22;21192;40.182;44.516;2023-02-24T09:19:34;10.40;30.60
34989;DHT22;21192;40.182;44.516;2023-02-24T09:24:55;10.40;30.20
34989;DHT22;21192;40.182;44.516;2023-02-24T09:27:41;10.40;30.80
34989;DHT22;21192;40.182;44.516;2023-02-24T09:30:11;10.40;31.30
34989;DHT22;21192;40.182;44.516;2023-02-24T09:32:57;10.40;31.80
34989;DHT22;21192;40.182;44.516;2023-02-24T09:35:28;10.40;31.70
34989;DHT22;21192;40.182;44.516;2023-02-24T09:37:58;10.50;31.50
34989;DHT22;21192;40.182;44.516;2023-02-24T09:40:26;10.40;31.20
34989;DHT22;21192;40.182;44.516;2023-02-24T09:45:56;10.50;31.00
34989;DHT22;21192;40.182;44.516;2023-02-24T09:48:38;10.50;30.60
34989;DHT22;21192;40.182;44.516;2023-02-24T09:51:12;10.40;30.30
34989;DHT22;21192;40.182;44.516;2023-02-24T09:53:48;10.60;30.50
34989;DHT22;21192;40.182;44.516;2023-02-24T09:56:24;10.70;30.60
34989;DHT22;21192;40.182;44.516;2023-02-24T10:01:56;10.80;30.30
34989;DHT22;21192;40.182;44.516;2023-02-24T10:07:17;10.90;30.20
34989;DHT22;21192;40.182;44.516;2023-02-24T10:15:27;11.00;30.00
34989;DHT22;21192;40.182;44.516;2023-02-24T10:24:11;10.90;29.60
34989;DHT22;21192;40.182;44.516;2023-02-24T10:26:52;10.60;29.70
34989;DHT22;21192;40.182;44.516;2023-02-24T10:29:41;10.60;29.90
34989;DHT22;21192;40.182;44.516;2023-02-24T10:32:38;10.60;29.80
34989;DHT22;21192;40.182;44.516;2023-02-24T10:35:12;10.80;29.40
34989;DHT22;21192;40.182;44.516;2023-02-24T10:37:40;10.80;29.50
34989;DHT22;21192;40.182;44.516;2023-02-24T10:40:08;10.90;29.90
34989;DHT22;21192;40.182;44.516;2023-02-24T10:42:35;11.00;29.50
34989;DHT22;21192;40.182;44.516;2023-02-24T10:45:15;11.10;29.20
34989;DHT22;21192;40.182;44.516;2023-02-24T10:47:54;11.20;29.20
34989;DHT22;21192;40.182;44.516;2023-02-24T10:50:32;11.30;29.20
34989;DHT22;21192;40.182;44.516;2023-02-24T10:53:17;11.30;29.20
34989;DHT22;21192;40.182;44.516;2023-02-24T10:56:06;11.30;29.20
34989;DHT22;21192;40.182;44.516;2023-02-24T10:59:20;11.20;29.10
34989;DHT22;21192;40.182;44.516;2023-02-24T11:05:23;11.10;29.00
34989;DHT22;21192;40.182;44.516;2023-02-24T11:08:14;11.10;29.00
34989;DHT22;21192;40.182;44.516;2023-02-24T11:11:00;11.30;29.00
34989;DHT22;21192;40.182;44.516;2023-02-24T11:13:32;11.40;29.20
34989;DHT22;21192;40.182;44.516;2023-02-24T11:16:17;11.20;29.00
34989;DHT22;21192;40.182;44.516;2023-02-24T11:19:04;11.30;29.10
34989;DHT22;21192;40.182;44.516;2023-02-24T11:21:32;11.40;28.90
34989;DHT22;21192;40.182;44.516;2023-02-24T11:23:58;11.50;28.80
34989;DHT22;21192;40.182;44.516;2023-02-24T11:26:45;11.50;28.60
34989;DHT22;21192;40.182;44.516;2023-02-24T11:34:43;11.80;28.30
34989;DHT22;21192;40.182;44.516;2023-02-24T11:37:18;11.70;27.90
34989;DHT22;21192;40.182;44.516;2023-02-24T11:42:21;11.50;27.90
34989;DHT22;21192;40.182;44.516;2023-02-24T11:45:06;11.60;28.10
34989;DHT22;21192;40.182;44.516;2023-02-24T11:47:40;11.70;28.30
34989;DHT22;21192;40.182;44.516;2023-02-24T11:50:22;11.80;28.30
34989;DHT22;21192;40.182;44.516;2023-02-24T11:52:51;11.90;28.30
34989;DHT22;21192;40.182;44.516;2023-02-24T11:55:35;12.10;28.20
34989;DHT22;21192;40.182;44.516;2023-02-24T11:58:18;12.10;28.20
34989;DHT22;21192;40.182;44.516;2023-02-24T12:03:48;12.20;27.90
34989;DHT22;21192;40.182;44.516;2023-02-24T12:06:29;12.20;27.60
34989;DHT22;21192;40.182;44.516;2023-02-24T12:09:07;12.20;27.50
34989;DHT22;21192;40.182;44.516;2023-02-24T12:11:44;12.10;27.40
34989;DHT22;21192;40.182;44.516;2023-02-24T12:14:26;12.10;27.30
34989;DHT22;21192;40.182;44.516;2023-02-24T12:17:02;11.80;27.10
34989;DHT22;21192;40.182;44.516;2023-02-24T12:20:03;11.60;27.40
34989;DHT22;21192;40.182;44.516;2023-02-24T12:22:58;11.50;27.30
34989;DHT22;21192;40.182;44.516;2023-02-24T12:25:34;11.40;27.40
34989;DHT22;21192;40.182;44.516;2023-02-24T12:28:16;11.30;27.90
34989;DHT22;21192;40.182;44.516;2023-02-24T12:34:19;11.30;28.60
34989;DHT22;21192;40.182;44.516;2023-02-24T12:50:48;11.60;27.90
34989;DHT22;21192;40.182;44.516;2023-02-24T12:53:38;11.70;28.00
34989;DHT22;21192;40.182;44.516;2023-02-24T12:56:23;11.70;28.30
34989;DHT22;21192;40.182;44.516;2023-02-24T12:58:52;11.60;28.60
34989;DHT22;21192;40.182;44.516;2023-02-24T13:01:26;11.50;28.70
34989;DHT22;21192;40.182;44.516;2023-02-24T13:09:40;11.30;29.20
34989;DHT22;21192;40.182;44.516;2023-02-24T13:12:37;11.40;29.40
34989;DHT22;21192;40.182;44.516;2023-02-24T13:15:21;11.40;29.60
34989;DHT22;21192;40.182;44.516;2023-02-24T13:17:49;11.30;29.80
34989;DHT22;21192;40.182;44.516;2023-02-24T13:20:31;11.30;29.90
34989;DHT22;21192;40.182;44.516;2023-02-24T13:23:02;11.20;30.00
34989;DHT22;21192;40.182;44.516;2023-02-24T13:25:34;11.20;30.00
34989;DHT22;21192;40.182;44.516;2023-02-24T13:28:18;11.00;30.00
34989;DHT22;21192;40.182;44.516;2023-02-24T13:30:56;11.10;30.10
34989;DHT22;21192;40.182;44.516;2023-02-24T13:33:34;11.20;30.10
34989;DHT22;21192;40.182;44.516;2023-02-24T13:36:16;11.10;30.30
34989;DHT22;21192;40.182;44.516;2023-02-24T13:39:07;11.10;30.00
34989;DHT22;21192;40.182;44.516;2023-02-24T13:41:44;11.20;30.10
34989;DHT22;21192;40.182;44.516;2023-02-24T13:44:23;11.10;30.10
34989;DHT22;21192;40.182;44.516;2023-02-24T14:03:23;10.90;30.20
34989;DHT22;21192;40.182;44.516;2023-02-24T14:05:50;10.80;30.50
34989;DHT22;21192;40.182;44.516;2023-02-24T14:08:34;10.70;30.80
34989;DHT22;21192;40.182;44.516;2023-02-24T14:11:02;10.60;31.10
34989;DHT22;21192;40.182;44.516;2023-02-24T14:13:30;10.50;31.20
34989;DHT22;21192;40.182;44.516;2023-02-24T14:16:00;10.40;31.40
34989;DHT22;21192;40.182;44.516;2023-02-24T14:18:30;10.30;31.80
34989;DHT22;21192;40.182;44.516;2023-02-24T14:20:57;10.20;31.80
34989;DHT22;21192;40.182;44.516;2023-02-24T14:23:26;10.20;32.40
34989;DHT22;21192;40.182;44.516;2023-02-24T14:26:03;10.20;31.80
34989;DHT22;21192;40.182;44.516;2023-02-24T14:28:37;10.30;31.90
34989;DHT22;21192;40.182;44.516;2023-02-24T14:31:09;10.30;32.00
34989;DHT22;21192;40.182;44.516;2023-02-24T14:33:37;10.20;31.90
34989;DHT22;21192;40.182;44.516;2023-02-24T14:36:06;10.20;32.00
34989;DHT22;21192;40.182;44.516;2023-02-24T14:38:39;10.30;32.00
34989;DHT22;21192;40.182;44.516;2023-02-24T14:41:20;10.30;32.00
34989;DHT22;21192;40.182;44.516;2023-02-24T14:43:47;10.40;31.90
34989;DHT22;21192;40.182;44.516;2023-02-24T14:46:13;10.30;31.90
34989;DHT22;21192;40.182;44.516;2023-02-24T14:48:42;10.30;32.00
34989;DHT22;21192;40.182;44.516;2023-02-24T14:51:18;10.20;32.00
34989;DHT22;21192;40.182;44.516;2023-02-24T14:53:53;10.10;32.10
34989;DHT22;21192;40.182;44.516;2023-02-24T14:56:22;10.20;32.30
34989;DHT22;21192;40.182;44.516;2023-02-24T14:58:54;10.10;32.30
34989;DHT22;21192;40.182;44.516;2023-02-24T15:01:37;10.10;32.30
34989;DHT22;21192;40.182;44.516;2023-02-24T15:04:13;10.20;32.30
34989;DHT22;21192;40.182;44.516;2023-02-24T15:06:41;10.10;32.30
34989;DHT22;21192;40.182;44.516;2023-02-24T15:09:18;10.20;32.30
34989;DHT22;21192;40.182;44.516;2023-02-24T15:11:49;10.10;32.40
34989;DHT22;21192;40.182;44.516;2023-02-24T15:14:24;10.10;32.50
34989;DHT22;21192;40.182;44.516;2023-02-24T15:16:57;10.00;32.60
34989;DHT22;21192;40.182;44.516;2023-02-24T15:19:35;9.90;32.70
34989;DHT22;21192;40.182;44.516;2023-02-24T15:22:23;9.80;32.70
34989;DHT22;21192;40.182;44.516;2023-02-24T15:28:03;9.70;33.10
34989;DHT22;21192;40.182;44.516;2023-02-24T15:30:37;9.60;33.30
34989;DHT22;21192;40.182;44.516;2023-02-24T15:33:22;9.50;33.60
34989;DHT22;21192;40.182;44.516;2023-02-24T15:35:54;9.30;34.20
34989;DHT22;21192;40.182;44.516;2023-02-24T15:38:33;9.10;34.80
34989;DHT22;21192;40.182;44.516;2023-02-24T15:41:01;8.90;35.50
34989;DHT22;21192;40.182;44.516;2023-02-24T15:43:34;8.80;36.20
34989;DHT22;21192;40.182;44.516;2023-02-24T15:46:13;8.70;36.60
34989;DHT22;21192;40.182;44.516;2023-02-24T15:48:42;8.60;37.00
34989;DHT22;21192;40.182;44.516;2023-02-24T15:51:17;8.60;37.30
34989;DHT22;21192;40.182;44.516;2023-02-24T15:53:44;8.50;37.50
34989;DHT22;21192;40.182;44.516;2023-02-24T15:56:10;8.50;37.90
34989;DHT22;21192;40.182;44.516;2023-02-24T15:58:37;8.40;38.10
34989;DHT22;21192;40.182;44.516;2023-02-24T16:01:03;8.40;38.50
34989;DHT22;21192;40.182;44.516;2023-02-24T16:03:29;8.30;38.80
34989;DHT22;21192;40.182;44.516;2023-02-24T16:05:54;8.40;39.00
34989;DHT22;21192;40.182;44.516;2023-02-24T16:08:20;8.40;39.10
34989;DHT22;21192;40.182;44.516;2023-02-24T16:10:47;8.50;39.40
34989;DHT22;21192;40.182;44.516;2023-02-24T16:13:19;8.40;39.60
34989;DHT22;21192;40.182;44.516;2023-02-24T16:15:45;8.40;39.70
34989;DHT22;21192;40.182;44.516;2023-02-24T16:18:17;8.30;40.00
34989;DHT22;21192;40.182;44.516;2023-02-24T16:20:45;8.40;40.00
34989;DHT22;21192;40.182;44.516;2023-02-24T16:23:28;8.40;40.20
34989;DHT22;21192;40.182;44.516;2023-02-24T16:25:58;8.20;40.50
34989;DHT22;21192;40.182;44.516;2023-02-24T16:28:25;8.20;40.90
34989;DHT22;21192;40.182;44.516;2023-02-24T16:30:51;8.30;41.00
34989;DHT22;21192;40.182;44.516;2023-02-24T16:33:19;8.30;41.10
34989;DHT22;21192;40.182;44.516;2023-02-24T16:35:49;8.30;41.30
34989;DHT22;21192;40.182;44.516;2023-02-24T16:38:18;8.30;41.40
34989;DHT22;21192;40.182;44.516;2023-02-24T16:40:47;8.20;41.60
34989;DHT22;21192;40.182;44.516;2023-02-24T16:43:14;8.20;42.00
34989;DHT22;21192;40.182;44.516;2023-02-24T16:45:41;8.20;42.40
34989;DHT22;21192;40.182;44.516;2023-02-24T16:48:19;8.30;42.40
34989;DHT22;21192;40.182;44.516;2023-02-24T16:50:46;8.30;42.10
34989;DHT22;21192;40.182;44.516;2023-02-24T16:53:18;8.40;42.10
34989;DHT22;21192;40.182;44.516;2023-02-24T16:55:45;8.30;42.10
34989;DHT22;21192;40.182;44.516;2023-02-24T16:58:12;8.00;42.40
34989;DHT22;21192;40.182;44.516;2023-02-24T17:00:40;7.90;42.40
34989;DHT22;21192;40.182;44.516;2023-02-24T17:03:18;7.90;42.50
34989;DHT22;21192;40.182;44.516;2023-02-24T17:05:44;7.80;42.60
34989;DHT22;21192;40.182;44.516;2023-02-24T17:08:10;7.70;42.80
34989;DHT22;21192;40.182;44.516;2023-02-24T17:10:36;7.60;42.70
34989;DHT22;21192;40.182;44.516;2023-02-24T17:13:08;7.50;42.90
34989;DHT22;21192;40.182;44.516;2023-02-24T17:15:35;7.50;42.90
34989;DHT22;21192;40.182;44.516;2023-02-24T17:18:02;7.40;42.80
34989;DHT22;21192;40.182;44.516;2023-02-24T17:20:27;7.40;42.90
34989;DHT22;21192;40.182;44.516;2023-02-24T17:22:54;7.30;42.90
34989;DHT22;21192;40.182;44.516;2023-02-24T17:25:23;7.30;42.80
34989;DHT22;21192;40.182;44.516;2023-02-24T17:27:49;7.30;42.90
34989;DHT22;21192;40.182;44.516;2023-02-24T17:30:19;7.30;43.00
34989;DHT22;21192;40.182;44.516;2023-02-24T17:32:46;7.40;43.00
34989;DHT22;21192;40.182;44.516;2023-02-24T17:35:12;7.40;42.80
34989;DHT22;21192;40.182;44.516;2023-02-24T17:37:38;7.50;42.70
34989;DHT22;21192;40.182;44.516;2023-02-24T17:40:05;7.50;42.50
34989;DHT22;21192;40.182;44.516;2023-02-24T17:42:31;7.50;42.40
34989;DHT22;21192;40.182;44.516;2023-02-24T17:44:57;7.50;42.30
34989;DHT22;21192;40.182;44.516;2023-02-24T17:47:23;7.50;42.30
34989;DHT22;21192;40.182;44.516;2023-02-24T17:49:49;7.50;42.20
34989;DHT22;21192;40.182;44.516;2023-02-24T17:52:15;7.40;42.30
34989;DHT22;21192;40.182;44.516;2023-02-24T17:54:41;7.40;42.40
34989;DHT22;21192;40.182;44.516;2023-02-24T17:57:07;7.40;42.70
34989;DHT22;21192;40.182;44.516;2023-02-24T17:59:36;7.20;42.30